Campo Belo, Brazil
Current Conditions -  °F | °C
As of 11:00 AM on Thursday 18 Dec 2014 (Local Time) from SBGW Reporting Station
Few Clouds Few Clouds  
Wind Chill: 84°   Ceiling: Unl
Heat Index: 86°   Visibility: 6mi
Dew Point: 64°   Wind: 3mph
Humidity: 51%   Direction: 70°ENE
Pressure: 29.91"   Gusts: NA
Location:  22.5°S, 44.57°W
Report Text: SBGW 181300Z 07003KT 9999 FEW025 29/18 Q1013
Loading
Personal Weather Stations






























Interactive Weather Map New forecast layout! Learn more

10-Day Weather Forecast

Advertisements
Track Severe Weather on mobile